• Join FlightAware (Why Join?)
  • Login
  • US Flag 
07:37PM EDT


 

Airport Tracker/Info


-or-


 

Live Flight TrackerFlight Track Log ✈ SWA1761 ✈ 26-Apr-2013 ✈ KMDW - KMSY

Flight Track Log - Related Links

Times and Time Zones

All times are in EDT time to prevent confusion due to time zone crossing. See the SWA1761 flight status page for this flight to view local times or setup timezone preferences in your user account.

Time Position Orientation Groundspeed Altitude Reporting Facility
EDT Latitude Longitude Course Direction KTS MPH feet Rate Location/Type
04:04PM 41.7667 -87.7833 196° South 141 162 2,800  Level Chicago TRACON
04:06PM 41.6847 -87.8375 206° Southwest 218 251 5,900 2,400 Climbing Chicago Center
04:07PM 41.6236 -87.8806 208° Southwest 242 278 9,300 3,000 Climbing Chicago Center
04:08PM 41.5386 -87.9389 207° Southwest 301 346 12,100 2,700 Climbing Chicago Center
04:09PM 41.4486 -87.9736 196° South 333 383 15,000 3,480 Climbing Chicago Center
04:10PM 41.2966 -88.0555 196° South  Level FlightAware Approximate
04:10PM 41.3506 -88.0069 194° South 348 400 19,400  Level Chicago Center
04:11PM 41.2464 -88.0419 194° South 373 429 20,200 1,740 Climbing Chicago Center
04:12PM 41.1378 -88.0783 194° South 395 455 23,100 2,460 Climbing Chicago Center
04:13PM 41.0289 -88.1164 195° South 404 465 25,400 2,100 Climbing Chicago Center
04:14PM 40.9147 -88.1536 194° South 419 482 27,500 1,260 Climbing Chicago Center
04:15PM 40.7997 -88.1922 194° South 427 491 28,000 240 Climbing Chicago Center
04:16PM 40.6619 -88.2383 194° South 428 493 28,000 720 Level Chicago Center
04:17PM 40.5461 -88.2761 194° South 429 494 29,600 1,860 Climbing Chicago Center
04:18PM 40.4347 -88.3147 195° South 419 482 31,900 1,140 Climbing Chicago Center
04:19PM 40.3250 -88.3500 194° South 408 470 32,000  Climbing Chicago Center
04:21PM 40.2136 -88.3875 194° South 414 476 32,000 660 Level Chicago Center
04:22PM 40.0786 -88.4319 194° South 420 483 33,400 1,080 Climbing Chicago Center
04:22PM 39.9956 -88.4581 194° South 406 467 34,200 1,380 Climbing Kansas City Center
04:24PM 39.8906 -88.4925 194° South 395 455 36,200 1,560 Climbing Kansas City Center
04:25PM 39.7886 -88.5275 195° South 384 442 37,500 840 Climbing Kansas City Center
04:26PM 39.6836 -88.5594 193° South 384 442 38,000 180 Climbing Kansas City Center
04:27PM 39.5519 -88.6039 195° South 398 458 38,000  Level Kansas City Center
04:28PM 39.4453 -88.6378 194° South 397 457 38,000  Level Kansas City Center
04:29PM 39.3383 -88.6750 195° South 390 449 38,000  Level Kansas City Center
04:30PM 39.2325 -88.7078 193° South 390 449 38,000  Level Kansas City Center
04:31PM 39.1256 -88.7414 194° South 393 452 38,000  Level Kansas City Center
04:32PM 39.0197 -88.7758 194° South 392 451 38,000  Level Kansas City Center
04:33PM 38.9144 -88.8086 194° South 389 448 38,000  Level Kansas City Center
04:34PM 38.7892 -88.8494 194° South 387 445 38,000  Level Kansas City Center
04:35PM 38.6844 -88.8817 194° South 387 445 38,000  Level Kansas City Center
04:36PM 38.5714 -88.9186 194° South 386 444 38,000  Level Kansas City Center
04:37PM 38.4678 -88.9506 194° South 383 441 38,000  Level Kansas City Center
04:38PM 38.3567 -88.9847 194° South 381 438 38,000  Level Kansas City Center
04:39PM 38.2694 -89.0114 193° South 382 440 38,000  Level Kansas City Center
04:40PM 38.1508 -89.0497 194° South 381 438 38,000  Level Kansas City Center
04:41PM 38.0383 -89.0842 194° South 385 443 38,000  Level Kansas City Center
04:42PM 37.9350 -89.1167 194° South 384 442 38,000  Level Kansas City Center
04:43PM 37.8214 -89.1500 193° South 388 447 38,000  Level Kansas City Center
04:44PM 37.7319 -89.1747 192° South 386 444 38,000  Level Kansas City Center
04:45PM 37.6042 -89.2142 194° South 391 450 38,000  Level Kansas City Center
04:46PM 37.4975 -89.2469 194° South 394 453 38,000  Level Kansas City Center
04:47PM 37.3906 -89.2808 194° South 395 455 38,000  Level Kansas City Center
04:48PM 37.3294 -89.3058 198° South 400 460 38,000  Level Memphis Center
04:49PM 37.2236 -89.3383 194° South 400 460 38,000  Level Memphis Center
04:50PM 37.1175 -89.3708 194° South 395 455 38,000  Level Memphis Center
04:51PM 37.0094 -89.4033 194° South 395 455 38,000  Level Memphis Center
04:52PM 36.9033 -89.4358 194° South 395 455 38,000  Level Memphis Center
04:53PM 36.7933 -89.4683 193° South 395 455 38,000 180 Level Memphis Center
04:54PM 36.6850 -89.5006 193° South 395 455 38,400 720 Climbing Memphis Center
04:55PM 36.5747 -89.5353 194° South 402 463 39,500 780 Climbing Memphis Center
04:56PM 36.4647 -89.5700 194° South 407 468 40,000 240 Climbing Memphis Center
04:57PM 36.3503 -89.6044 194° South 417 480 40,000  Level Memphis Center
04:58PM 36.2356 -89.6339 192° South 422 486 40,000  Level Memphis Center
04:59PM 36.1233 -89.6658 193° South 422 486 40,000  Level Memphis Center
05:00PM 36.0067 -89.7000 193° South 422 486 40,000  Level Memphis Center
05:01PM 35.8900 -89.7317 192° South 428 493 40,000  Level Memphis Center
05:02PM 35.7756 -89.7658 194° South 433 498 40,000  Level Memphis Center
05:03PM 35.6506 -89.8000 193° South 428 493 40,000  Level Memphis Center
05:04PM 35.5361 -89.8342 194° South 423 487 40,000  Level Memphis Center
05:05PM 35.4172 -89.8706 194° South 433 498 40,000  Level Memphis Center
05:06PM 35.3028 -89.9017 193° South 433 498 40,000  Level Memphis Center
05:07PM 35.1861 -89.9378 194° South 428 493 40,000  Level Memphis Center
05:08PM 35.0694 -89.9714 193° South 433 498 40,000  Level Memphis Center
05:09PM 34.9525 -90.0050 193° South 433 498 40,000  Level Memphis Center
05:10PM 34.8253 -90.0283 189° South 440 506 40,000  Level Memphis Center
05:11PM 34.7044 -90.0489 188° South 446 513 40,000  Level Memphis Center
05:12PM 34.5833 -90.0694 188° South 446 513 40,000  Level Memphis Center
05:13PM 34.4644 -90.0925 189° South 446 513 40,000  Level Memphis Center
05:14PM 34.3436 -90.1156 189° South 446 513 40,000  Level Memphis Center
05:15PM 34.2247 -90.1386 189° South 446 513 40,000  Level Memphis Center
05:16PM 34.1058 -90.1589 188° South 446 513 40,000  Level Memphis Center
05:17PM 33.9847 -90.1819 189° South 446 513 40,000  Level Memphis Center
05:18PM 33.8636 -90.2047 189° South 446 513 40,000  Level Memphis Center
05:19PM 33.7489 -90.2272 189° South 438 504 40,000  Level Memphis Center
05:20PM 33.6300 -90.2500 189° South 438 504 40,000  Level Memphis Center
05:21PM 33.5089 -90.2725 189° South 438 504 40,000  Level Memphis Center
05:22PM 33.3858 -90.2825 184° South 443 510 40,000  Level Memphis Center
05:23PM 33.2731 -90.2778 178° South 448 516 40,000  Level Memphis Center
05:24PM 33.1500 -90.2753 179° South 448 516 40,000 -300 Level Memphis Center
05:25PM 33.0247 -90.2756 180° South 448 516 39,400 -780 Descending Memphis Center
05:26PM 32.8972 -90.2756 180° South 453 521 38,500 -900 Descending Memphis Center
05:27PM 32.7700 -90.2733 179° South 459 528 37,600 -960 Descending Memphis Center
05:28PM 32.6406 -90.2708 179° South 459 528 36,600 -960 Descending Memphis Center
05:29PM 32.5153 -90.2686 179° South 459 528 35,700 -840 Descending Memphis Center
05:30PM 32.3881 -90.2664 179° South 459 528 35,000 -1,020 Descending Memphis Center
05:31PM 32.2439 -90.2664 180° South 459 528 33,700 -1,020 Descending Memphis Center
05:32PM 32.1228 -90.2667 180° South 454 522 33,000 -360 Descending Memphis Center
05:33PM 31.9997 -90.2642 179° South 454 522 33,000  Level Memphis Center
05:34PM 31.8764 -90.2619 179° South 454 522 33,000  Level Memphis Center
05:34PM 31.8214 -90.2617 180° South 444 511 33,000 -960 Level Houston Center
05:36PM 31.6736 -90.2608 180° South 441 507 31,500 -2,040 Descending Houston Center
05:37PM 31.5486 -90.2597 180° South 449 517 28,800 -2,520 Descending Houston Center
05:38PM 31.4253 -90.2586 180° South 445 512 26,400 -2,280 Descending Houston Center
05:39PM 31.3069 -90.2575 180° South 429 494 24,100 -1,380 Descending Houston Center
05:40PM 31.1919 -90.2500 177° South 418 481 23,600 -1,380 Descending Houston Center
05:41PM 31.0806 -90.2428 177° South 404 465 21,300 -2,460 Descending Houston Center
05:42PM 30.9528 -90.2317 176° South 385 443 18,600 -2,460 Descending Houston Center
05:43PM 30.8472 -90.2247 177° South 380 437 16,300 -2,280 Descending Houston Center
05:44PM 30.7375 -90.2158 176° South 369 425 14,000 -2,100 Descending Houston Center
05:45PM 30.6472 -90.2103 177° South 356 410 12,000 -1,560 Descending Houston Center
05:46PM 30.5569 -90.2047 177° South 331 381 10,800 -1,200 Descending Houston Center
05:47PM 30.4608 -90.2081 182° South 294 338 9,600 -1,380 Descending Houston Center
05:48PM 30.3867 -90.2092 181° South 276 318 8,000 -1,740 Descending Houston Center
05:49PM 30.3153 -90.2106 181° South 265 305 6,100 -2,040 Descending Houston Center
05:50PM 30.2256 -90.2125 181° South 262 302 3,800 -1,500 Descending Houston Center
05:51PM 30.1722 -90.2136 181° South 260 299 3,000 -840 Descending Houston Center
05:52PM 30.1036 -90.2161 182° South 223 257 2,200 -900 Descending Houston Center
05:53PM 30.0578 -90.2281 193° South 193 222 1,200 -900 Descending Houston Center
05:54PM 30.0222 -90.2403 197° South 162 186 400 -780 Descending Houston Center
05:56PM 29.9833 -90.2500 190° South  Level FlightAware Approximate
06:03PM 29.9934 -90.2580 190° South  Level Estimated
06:04PM 29.9934 -90.2580 190° South  Level Estimated